createdAt,value
2022-12-11T05:17:31.745Z,-1.66
2022-12-11T05:19:58.295Z,-1.61
2022-12-11T05:22:24.762Z,-1.50
2022-12-11T05:24:51.226Z,-1.42
2022-12-11T05:27:17.732Z,-1.61
2022-12-11T05:29:44.227Z,-1.72
2022-12-11T05:32:10.739Z,-2.32
2022-12-11T05:34:37.224Z,-2.18
2022-12-11T05:37:03.681Z,-1.76
2022-12-11T05:39:30.294Z,-1.92
2022-12-11T05:41:56.761Z,-1.87
2022-12-11T05:44:26.233Z,-2.39
2022-12-11T05:46:52.985Z,-2.92
2022-12-11T05:49:20.229Z,-2.91
2022-12-11T05:51:47.448Z,-2.72
2022-12-11T05:54:14.461Z,-3.06
2022-12-11T05:56:40.905Z,-3.30
2022-12-11T05:59:08.214Z,-2.79
2022-12-11T06:01:41.552Z,-2.43
2022-12-11T06:04:09.666Z,-2.14
2022-12-11T06:06:36.759Z,-2.02
2022-12-11T06:09:04.336Z,-2.11
2022-12-11T06:11:32.798Z,-1.83
2022-12-11T06:14:01.028Z,-1.89
2022-12-11T06:16:27.610Z,-1.96
2022-12-11T06:18:57.976Z,-2.08
2022-12-11T06:21:27.836Z,-1.75
2022-12-11T06:23:55.584Z,-1.56
2022-12-11T06:26:22.435Z,-1.47
2022-12-11T06:28:49.733Z,-1.45
2022-12-11T06:31:17.483Z,-1.33
2022-12-11T06:33:47.750Z,-1.31
2022-12-11T06:36:21.773Z,-1.32
2022-12-11T06:38:48.901Z,-1.42
2022-12-11T06:41:15.937Z,-1.32
2022-12-11T06:43:42.960Z,-1.30
2022-12-11T06:46:16.083Z,-1.30
2022-12-11T06:48:43.512Z,-1.24
2022-12-11T06:51:15.704Z,-1.20
2022-12-11T06:53:42.697Z,-1.56
2022-12-11T06:56:12.287Z,-2.03
2022-12-11T06:58:39.677Z,-1.67
2022-12-11T07:01:24.781Z,-1.49
2022-12-11T07:04:00.559Z,-2.01
2022-12-11T07:06:28.591Z,-2.00
2022-12-11T07:08:55.661Z,-1.85
2022-12-11T07:11:25.899Z,-1.91
2022-12-11T07:13:52.344Z,-1.86
2022-12-11T07:16:19.391Z,-2.39
2022-12-11T07:18:50.457Z,-2.03
2022-12-11T07:21:18.132Z,-2.23
2022-12-11T07:23:44.635Z,-2.16
2022-12-11T07:26:14.842Z,-2.35
2022-12-11T07:28:42.559Z,-1.93
2022-12-11T07:31:14.652Z,-2.01
2022-12-11T07:33:42.325Z,-1.88
2022-12-11T07:36:11.566Z,-1.97
2022-12-11T07:38:38.781Z,-1.70
2022-12-11T07:41:08.107Z,-1.89
2022-12-11T07:43:35.564Z,-2.55
2022-12-11T07:46:04.925Z,-2.38
2022-12-11T07:48:34.774Z,-1.78
2022-12-11T07:51:12.344Z,-1.94
2022-12-11T07:53:38.907Z,-1.89
2022-12-11T07:56:05.791Z,-1.78
2022-12-11T07:58:36.058Z,-2.62
2022-12-11T08:01:02.683Z,-2.64
2022-12-11T08:03:29.272Z,-2.68
2022-12-11T08:05:56.030Z,-2.56
2022-12-11T08:08:23.214Z,-2.49
2022-12-11T08:10:49.928Z,-2.75
2022-12-11T08:13:16.453Z,-2.57
2022-12-11T08:15:42.937Z,-2.25
2022-12-11T08:18:09.419Z,-1.94
2022-12-11T08:20:38.396Z,-1.92
2022-12-11T08:23:05.493Z,-1.66
2022-12-11T08:25:32.025Z,-2.13
2022-12-11T08:27:58.536Z,-2.28
2022-12-11T08:30:25.108Z,-2.39
2022-12-11T08:32:51.694Z,-2.49
2022-12-11T08:35:18.259Z,-2.33
2022-12-11T08:37:44.704Z,-2.45
2022-12-11T08:40:12.297Z,-1.73
2022-12-11T08:42:38.801Z,-1.79
2022-12-11T08:45:06.107Z,-2.02
2022-12-11T08:47:32.610Z,-1.43
2022-12-11T08:49:59.076Z,-2.72
2022-12-11T08:52:25.633Z,-2.26
2022-12-11T08:54:52.102Z,-2.27
2022-12-11T08:57:18.626Z,-1.99
2022-12-11T08:59:45.063Z,-2.19
2022-12-11T09:02:12.824Z,-2.23
2022-12-11T09:04:39.431Z,-2.43
2022-12-11T09:07:05.892Z,-2.60
2022-12-11T09:09:32.434Z,-2.49
2022-12-11T09:11:59.345Z,-2.12
2022-12-11T09:14:25.813Z,-2.48
2022-12-11T09:16:52.244Z,-2.05
2022-12-11T09:19:18.993Z,-2.17
2022-12-11T09:21:45.522Z,-2.56
2022-12-11T09:24:13.188Z,-2.06
2022-12-11T09:26:40.012Z,-1.89
2022-12-11T09:29:08.813Z,-2.16
2022-12-11T09:31:37.041Z,-1.59
2022-12-11T09:34:11.430Z,-1.52
2022-12-11T09:36:42.618Z,-1.77
2022-12-11T09:39:10.840Z,-1.94
2022-12-11T09:41:47.746Z,-1.60
2022-12-11T09:44:30.124Z,-1.57
2022-12-11T09:47:15.293Z,-1.79
2022-12-11T09:49:44.563Z,-1.73
2022-12-11T09:52:20.165Z,-1.18
2022-12-11T09:54:52.584Z,-1.62
2022-12-11T09:57:38.401Z,-1.47
2022-12-11T10:00:11.388Z,-1.00
2022-12-11T10:02:50.179Z,-1.29
2022-12-11T10:05:27.006Z,-1.06
2022-12-11T10:08:05.553Z,-1.48
2022-12-11T10:11:00.506Z,-1.86
2022-12-11T10:13:42.522Z,-1.48
2022-12-11T10:16:34.567Z,-1.39
2022-12-11T10:19:01.379Z,-1.32
2022-12-11T10:21:39.900Z,-1.26
2022-12-11T10:24:34.658Z,-0.92
2022-12-11T10:27:19.234Z,-1.05
2022-12-11T10:29:47.622Z,-1.01
2022-12-11T10:32:24.494Z,-0.69
2022-12-11T10:35:05.503Z,-0.70
2022-12-11T10:37:32.041Z,-0.57
2022-12-11T10:39:58.639Z,-0.32
2022-12-11T10:42:25.238Z,-0.60
2022-12-11T10:45:03.578Z,-0.96
2022-12-11T10:47:30.179Z,-0.95
2022-12-11T10:49:59.492Z,-0.88
2022-12-11T10:52:31.857Z,-0.79
2022-12-11T10:55:38.239Z,-0.56
2022-12-11T10:58:06.502Z,-0.27
2022-12-11T11:00:37.540Z,-0.42
2022-12-11T11:03:22.411Z,-0.54
2022-12-11T11:05:50.790Z,-0.33
2022-12-11T11:08:25.234Z,-0.05
2022-12-11T11:11:00.659Z,-0.20
2022-12-11T11:13:31.502Z,-0.24
2022-12-11T11:16:01.371Z,-0.47
2022-12-11T11:18:30.399Z,-0.29
2022-12-11T11:20:57.468Z,-0.01
2022-12-11T11:23:25.587Z,0.01
2022-12-11T11:25:55.565Z,0.04
2022-12-11T11:28:26.462Z,0.10
2022-12-11T11:30:58.447Z,0.03
2022-12-11T11:33:25.468Z,0.11
2022-12-11T11:35:54.902Z,0.21
2022-12-11T11:38:24.507Z,0.21
2022-12-11T11:41:21.293Z,0.41
2022-12-11T11:43:55.565Z,0.47
2022-12-11T11:46:27.935Z,0.20
2022-12-11T11:49:12.919Z,0.08
2022-12-11T11:52:01.004Z,0.24
2022-12-11T11:54:37.376Z,0.07
2022-12-11T11:57:43.658Z,0.14
2022-12-11T12:00:30.375Z,0.13
2022-12-11T12:03:05.972Z,0.30
2022-12-11T12:06:04.441Z,0.30
2022-12-11T12:08:51.907Z,0.21
2022-12-11T12:11:28.196Z,0.16
2022-12-11T12:14:51.719Z,-0.03
2022-12-11T12:17:43.309Z,0.33
2022-12-11T12:20:34.783Z,0.36
2022-12-11T12:23:25.619Z,0.19
2022-12-11T12:26:25.532Z,0.33
2022-12-11T12:29:06.461Z,0.01
2022-12-11T12:32:05.760Z,0.06
2022-12-11T12:34:41.317Z,0.18
2022-12-11T12:37:35.274Z,0.04
2022-12-11T12:40:16.949Z,0.02
2022-12-11T12:43:01.771Z,0.15
2022-12-11T12:46:13.434Z,0.30
2022-12-11T12:48:40.023Z,0.00
2022-12-11T12:51:06.939Z,0.29
2022-12-11T12:53:36.812Z,0.27
2022-12-11T12:56:05.766Z,0.27
2022-12-11T12:58:35.517Z,0.38
2022-12-11T13:01:27.297Z,0.19
2022-12-11T13:04:05.968Z,0.11
2022-12-11T13:06:44.223Z,0.36
2022-12-11T13:09:21.123Z,0.26
2022-12-11T13:11:59.010Z,0.32
2022-12-11T13:14:31.039Z,0.38
2022-12-11T13:17:22.486Z,0.31
2022-12-11T13:19:53.059Z,0.38
2022-12-11T13:22:24.227Z,0.24
2022-12-11T13:25:01.722Z,0.16
2022-12-11T13:27:44.624Z,0.24
2022-12-11T13:30:14.344Z,0.10
2022-12-11T13:32:55.464Z,0.11
2022-12-11T13:35:22.030Z,0.01
2022-12-11T13:37:51.021Z,0.16
2022-12-11T13:40:22.804Z,0.15
2022-12-11T13:42:51.904Z,0.36
2022-12-11T13:45:52.079Z,0.35
2022-12-11T13:48:53.949Z,0.26
2022-12-11T13:51:22.875Z,0.35
2022-12-11T13:53:49.917Z,0.46
2022-12-11T13:56:20.249Z,0.38
2022-12-11T13:58:48.095Z,0.39
2022-12-11T14:01:23.812Z,0.18
2022-12-11T14:04:15.295Z,0.17
2022-12-11T14:06:42.350Z,0.21
2022-12-11T14:09:09.338Z,0.35
2022-12-11T14:11:43.282Z,0.34
2022-12-11T14:14:40.192Z,-0.02
2022-12-11T14:17:13.980Z,0.02
2022-12-11T14:19:47.145Z,0.13
2022-12-11T14:22:20.465Z,0.07
2022-12-11T14:24:58.896Z,-0.02
2022-12-11T14:27:26.937Z,0.10
2022-12-11T14:29:53.840Z,0.15
2022-12-11T14:32:44.715Z,0.31
2022-12-11T14:35:24.279Z,0.37
2022-12-11T14:37:58.711Z,0.22
2022-12-11T14:40:30.502Z,0.38
2022-12-11T14:43:02.128Z,0.33
2022-12-11T14:45:39.507Z,0.42
2022-12-11T14:48:17.001Z,0.41
2022-12-11T14:50:53.062Z,0.46
2022-12-11T14:53:33.904Z,0.44
2022-12-11T14:56:05.514Z,0.49
2022-12-11T14:58:38.123Z,0.38
2022-12-11T15:01:26.646Z,0.29
2022-12-11T15:04:15.322Z,0.33
2022-12-11T15:06:47.052Z,0.37
2022-12-11T15:09:19.326Z,0.56
2022-12-11T15:11:47.273Z,0.62
2022-12-11T15:14:16.283Z,0.57
2022-12-11T15:16:43.184Z,0.56
2022-12-11T15:19:20.342Z,0.46
2022-12-11T15:21:47.612Z,0.33
2022-12-11T15:24:30.496Z,0.39
2022-12-11T15:26:59.743Z,0.41
2022-12-11T15:29:38.267Z,0.34
2022-12-11T15:32:18.971Z,0.37
2022-12-11T15:34:52.990Z,0.36
2022-12-11T15:37:36.128Z,0.48
2022-12-11T15:40:04.705Z,0.58
2022-12-11T15:42:34.319Z,0.48
2022-12-11T15:45:01.458Z,0.22
2022-12-11T15:47:30.540Z,0.35
2022-12-11T15:50:00.022Z,0.33
2022-12-11T15:52:26.565Z,0.33
2022-12-11T15:54:54.225Z,0.27
2022-12-11T15:57:24.051Z,0.29
2022-12-11T15:59:54.838Z,0.25
2022-12-11T16:02:21.550Z,0.07
2022-12-11T16:04:48.031Z,0.19
2022-12-11T16:07:33.535Z,0.33
2022-12-11T16:10:00.059Z,0.41
2022-12-11T16:12:26.595Z,0.40
2022-12-11T16:14:53.124Z,0.33
2022-12-11T16:17:19.884Z,0.37
2022-12-11T16:19:46.346Z,0.21
2022-12-11T16:22:14.107Z,0.01
2022-12-11T16:24:41.204Z,0.16
2022-12-11T16:27:12.161Z,0.09
2022-12-11T16:29:43.386Z,0.17
2022-12-11T16:32:10.281Z,0.03
2022-12-11T16:34:38.070Z,0.08
2022-12-11T16:37:06.800Z,0.04
2022-12-11T16:39:34.525Z,0.17
2022-12-11T16:42:01.046Z,0.26
2022-12-11T16:44:27.520Z,0.34
2022-12-11T16:46:54.492Z,0.15
2022-12-11T16:49:21.881Z,0.15
2022-12-11T16:51:51.263Z,0.37
2022-12-11T16:54:21.342Z,0.32
2022-12-11T16:56:51.340Z,0.16
2022-12-11T16:59:18.060Z,0.04
2022-12-11T17:01:45.103Z,0.26
2022-12-11T17:04:11.724Z,0.30
2022-12-11T17:06:38.212Z,0.22
2022-12-11T17:09:04.797Z,0.33
2022-12-11T17:11:31.308Z,0.39
2022-12-11T17:13:59.495Z,0.28
2022-12-11T17:16:30.239Z,0.36
2022-12-11T17:18:57.589Z,0.25
2022-12-11T17:21:24.358Z,0.30
2022-12-11T17:23:51.474Z,0.34
2022-12-11T17:26:28.721Z,0.38
2022-12-11T17:28:57.021Z,0.46
2022-12-11T17:31:24.072Z,0.39
2022-12-11T17:33:51.623Z,-0.03
2022-12-11T17:36:20.895Z,-0.04
2022-12-11T17:38:48.684Z,-0.01
2022-12-11T17:41:20.445Z,-0.17
2022-12-11T17:43:48.726Z,-0.32
2022-12-11T17:46:15.395Z,-0.13
2022-12-11T17:48:42.020Z,-0.04
2022-12-11T17:51:13.511Z,-0.04
2022-12-11T17:54:31.669Z,0.03
2022-12-11T17:57:09.574Z,-0.77
2022-12-11T17:59:39.338Z,-0.57
2022-12-11T18:02:08.847Z,-0.70
2022-12-11T18:04:49.754Z,-0.65
2022-12-11T18:08:02.676Z,-0.39
2022-12-11T18:10:40.531Z,-0.59
2022-12-11T18:13:07.517Z,-1.08
2022-12-11T18:15:49.923Z,-1.19
2022-12-11T18:18:16.619Z,-1.32
2022-12-11T18:21:55.533Z,-1.29
2022-12-11T18:24:31.626Z,-0.87
2022-12-11T18:27:12.252Z,-0.67
2022-12-11T18:29:39.439Z,-0.74
2022-12-11T18:32:06.555Z,-0.51
2022-12-11T18:34:35.893Z,-0.40
2022-12-11T18:37:02.523Z,-0.82
2022-12-11T18:39:29.300Z,-1.42
2022-12-11T18:42:30.698Z,-1.28
2022-12-11T18:44:46.956Z,-1.22
2022-12-11T18:47:13.638Z,-1.22
2022-12-11T18:49:42.376Z,-0.85
2022-12-11T18:52:09.351Z,-0.92
2022-12-11T18:55:01.269Z,-0.71
2022-12-11T18:57:30.853Z,-0.82
2022-12-11T19:00:02.417Z,-0.76
2022-12-11T19:02:29.130Z,-0.63
2022-12-11T19:04:58.606Z,-1.01
2022-12-11T19:07:25.459Z,-1.45
2022-12-11T19:10:19.095Z,-1.56
2022-12-11T19:12:45.846Z,-1.56
2022-12-11T19:15:13.035Z,-1.04
2022-12-11T19:17:40.000Z,-0.71
2022-12-11T19:20:32.253Z,-0.69
2022-12-11T19:22:56.317Z,-1.01
2022-12-11T19:25:23.281Z,-1.07
2022-12-11T19:27:51.125Z,-0.92
2022-12-11T19:30:18.212Z,-1.02
2022-12-11T19:32:46.786Z,-1.01
2022-12-11T19:35:15.090Z,-1.32
2022-12-11T19:37:42.626Z,-1.38
2022-12-11T19:40:10.416Z,-1.51
2022-12-11T19:42:36.937Z,-1.62
2022-12-11T19:45:06.164Z,-1.63
2022-12-11T19:47:36.255Z,-1.46
2022-12-11T19:50:03.925Z,-1.45
2022-12-11T19:52:30.878Z,-1.12
2022-12-11T19:55:02.071Z,-1.10
2022-12-11T19:57:28.965Z,-1.15
2022-12-11T19:59:57.467Z,-1.25
2022-12-11T20:02:24.512Z,-1.31
2022-12-11T20:04:51.307Z,-0.82
2022-12-11T20:07:18.172Z,-0.97
2022-12-11T20:09:45.288Z,-1.27
2022-12-11T20:12:12.561Z,-1.27
2022-12-11T20:14:39.327Z,-0.83
2022-12-11T20:17:12.341Z,-0.56
2022-12-11T20:19:39.896Z,-0.92
2022-12-11T20:22:06.560Z,-1.10
2022-12-11T20:24:33.511Z,-0.71
2022-12-11T20:27:00.179Z,-0.53
2022-12-11T20:29:28.159Z,-0.55
2022-12-11T20:31:55.011Z,-0.31
2022-12-11T20:34:21.913Z,-0.31
2022-12-11T20:36:48.900Z,-0.54
2022-12-11T20:39:15.978Z,-0.84
2022-12-11T20:41:43.208Z,-0.91
2022-12-11T20:44:10.001Z,-1.23
2022-12-11T20:46:36.702Z,-1.24
2022-12-11T20:49:03.454Z,-0.94
2022-12-11T20:51:31.498Z,-1.27
2022-12-11T20:53:59.837Z,-1.47
2022-12-11T20:56:31.569Z,-1.21
2022-12-11T20:59:00.135Z,-1.24
2022-12-11T21:01:31.879Z,-1.36
2022-12-11T21:03:59.762Z,-1.23
2022-12-11T21:06:31.587Z,-1.10
2022-12-11T21:09:00.717Z,-1.52
2022-12-11T21:11:28.296Z,-1.37
2022-12-11T21:13:55.453Z,-0.91
2022-12-11T21:16:22.994Z,-1.18
2022-12-11T21:18:49.727Z,-0.97
2022-12-11T21:21:17.040Z,-1.51
2022-12-11T21:23:44.363Z,-1.42
2022-12-11T21:26:11.760Z,-1.31
2022-12-11T21:28:38.652Z,-0.99
2022-12-11T21:31:09.115Z,-1.18
2022-12-11T21:33:36.365Z,-0.91
2022-12-11T21:36:08.770Z,-0.94
2022-12-11T21:38:36.145Z,-1.16
2022-12-11T21:41:11.606Z,-1.27
2022-12-11T21:43:54.587Z,-1.62
2022-12-11T21:46:27.999Z,-1.38
2022-12-11T21:48:54.804Z,-1.00
2022-12-11T21:51:36.152Z,-1.24
2022-12-11T21:54:06.605Z,-1.32
2022-12-11T21:56:34.284Z,-1.36
2022-12-11T21:59:01.760Z,-1.45
2022-12-11T22:01:33.416Z,-1.52
2022-12-11T22:04:15.181Z,-1.43
2022-12-11T22:06:47.132Z,-1.42
2022-12-11T22:09:19.207Z,-1.19
2022-12-11T22:11:47.223Z,-0.98
2022-12-11T22:14:16.955Z,-1.71
2022-12-11T22:16:45.519Z,-1.46
2022-12-11T22:19:12.448Z,-1.77
2022-12-11T22:21:39.100Z,-1.79
2022-12-11T22:24:05.909Z,-1.79
2022-12-11T22:26:32.496Z,-1.57
2022-12-11T22:28:59.166Z,-1.53
2022-12-11T22:31:26.671Z,-1.49
2022-12-11T22:33:53.921Z,-1.59
2022-12-11T22:36:22.075Z,-1.10
2022-12-11T22:38:48.925Z,-1.37
2022-12-11T22:41:24.311Z,-1.31
2022-12-11T22:43:51.284Z,-1.42
2022-12-11T22:46:20.884Z,-1.20
2022-12-11T22:48:51.646Z,-1.54
2022-12-11T22:51:18.368Z,-1.30
2022-12-11T22:53:45.332Z,-1.31
2022-12-11T22:56:14.004Z,-1.69
2022-12-11T22:58:40.797Z,-1.19
